sensor_id;sensor_type;location;lat;lon;timestamp;temperature;humidity
7822;DHT22;3956;50.558;9.678;2022-11-06T00:00:36;6.30;1.00
7822;DHT22;3956;50.558;9.678;2022-11-06T00:03:05;6.30;1.00
7822;DHT22;3956;50.558;9.678;2022-11-06T00:05:33;6.30;1.00
7822;DHT22;3956;50.558;9.678;2022-11-06T00:08:27;6.30;1.00
7822;DHT22;3956;50.558;9.678;2022-11-06T00:10:56;6.30;1.00
7822;DHT22;3956;50.558;9.678;2022-11-06T00:13:26;6.30;1.00
7822;DHT22;3956;50.558;9.678;2022-11-06T00:15:55;6.30;1.00
7822;DHT22;3956;50.558;9.678;2022-11-06T00:18:25;6.30;1.00
7822;DHT22;3956;50.558;9.678;2022-11-06T00:20:54;6.30;1.00
7822;DHT22;3956;50.558;9.678;2022-11-06T00:23:22;6.30;1.00
7822;DHT22;3956;50.558;9.678;2022-11-06T00:25:50;6.20;1.00
7822;DHT22;3956;50.558;9.678;2022-11-06T00:28:22;6.20;1.00
7822;DHT22;3956;50.558;9.678;2022-11-06T00:30:59;6.20;1.00
7822;DHT22;3956;50.558;9.678;2022-11-06T00:33:28;6.20;1.00
7822;DHT22;3956;50.558;9.678;2022-11-06T00:35:57;6.10;1.00
7822;DHT22;3956;50.558;9.678;2022-11-06T00:38:25;6.10;1.00
7822;DHT22;3956;50.558;9.678;2022-11-06T00:40:54;6.10;1.00
7822;DHT22;3956;50.558;9.678;2022-11-06T00:43:22;6.00;1.00
7822;DHT22;3956;50.558;9.678;2022-11-06T00:45:52;6.00;1.00
7822;DHT22;3956;50.558;9.678;2022-11-06T00:48:20;6.00;1.00
7822;DHT22;3956;50.558;9.678;2022-11-06T00:50:48;6.00;1.00
7822;DHT22;3956;50.558;9.678;2022-11-06T00:53:16;6.00;1.00
7822;DHT22;3956;50.558;9.678;2022-11-06T00:55:45;6.00;1.00
7822;DHT22;3956;50.558;9.678;2022-11-06T00:58:13;6.00;1.00
7822;DHT22;3956;50.558;9.678;2022-11-06T01:00:41;5.90;1.00
7822;DHT22;3956;50.558;9.678;2022-11-06T01:03:11;5.90;1.00
7822;DHT22;3956;50.558;9.678;2022-11-06T01:05:39;5.90;1.00
7822;DHT22;3956;50.558;9.678;2022-11-06T01:08:08;5.90;1.00
7822;DHT22;3956;50.558;9.678;2022-11-06T01:10:37;5.80;1.00
7822;DHT22;3956;50.558;9.678;2022-11-06T01:13:05;5.80;1.00
7822;DHT22;3956;50.558;9.678;2022-11-06T01:15:35;5.80;1.00
7822;DHT22;3956;50.558;9.678;2022-11-06T01:18:03;5.70;1.00
7822;DHT22;3956;50.558;9.678;2022-11-06T01:20:34;5.70;1.00
7822;DHT22;3956;50.558;9.678;2022-11-06T01:23:04;5.70;1.00
7822;DHT22;3956;50.558;9.678;2022-11-06T01:25:32;5.70;1.00
7822;DHT22;3956;50.558;9.678;2022-11-06T01:28:00;5.70;1.00
7822;DHT22;3956;50.558;9.678;2022-11-06T01:30:29;5.80;1.00
7822;DHT22;3956;50.558;9.678;2022-11-06T01:32:57;5.70;1.00
7822;DHT22;3956;50.558;9.678;2022-11-06T01:35:25;5.80;1.00
7822;DHT22;3956;50.558;9.678;2022-11-06T01:37:55;5.80;1.00
7822;DHT22;3956;50.558;9.678;2022-11-06T01:40:23;5.80;1.00
7822;DHT22;3956;50.558;9.678;2022-11-06T01:42:51;5.90;1.00
7822;DHT22;3956;50.558;9.678;2022-11-06T01:45:25;6.00;1.00
7822;DHT22;3956;50.558;9.678;2022-11-06T01:47:54;6.00;1.00
7822;DHT22;3956;50.558;9.678;2022-11-06T01:50:23;5.90;1.00
7822;DHT22;3956;50.558;9.678;2022-11-06T01:52:51;6.00;1.00
7822;DHT22;3956;50.558;9.678;2022-11-06T01:55:24;5.90;1.00
7822;DHT22;3956;50.558;9.678;2022-11-06T01:57:53;6.00;1.00
7822;DHT22;3956;50.558;9.678;2022-11-06T02:00:23;6.00;1.00
7822;DHT22;3956;50.558;9.678;2022-11-06T02:02:52;6.00;1.00
7822;DHT22;3956;50.558;9.678;2022-11-06T02:05:20;6.10;1.00
7822;DHT22;3956;50.558;9.678;2022-11-06T02:07:49;6.10;1.00
7822;DHT22;3956;50.558;9.678;2022-11-06T02:10:18;6.20;1.00
7822;DHT22;3956;50.558;9.678;2022-11-06T02:12:56;6.40;1.00
7822;DHT22;3956;50.558;9.678;2022-11-06T02:15:38;6.40;1.00
7822;DHT22;3956;50.558;9.678;2022-11-06T02:18:18;6.50;1.00
7822;DHT22;3956;50.558;9.678;2022-11-06T02:20:57;6.50;1.00
7822;DHT22;3956;50.558;9.678;2022-11-06T02:23:54;6.50;1.00
7822;DHT22;3956;50.558;9.678;2022-11-06T02:26:55;6.50;1.00
7822;DHT22;3956;50.558;9.678;2022-11-06T02:29:30;6.60;1.00
7822;DHT22;3956;50.558;9.678;2022-11-06T02:32:03;6.70;1.00
7822;DHT22;3956;50.558;9.678;2022-11-06T02:34:35;6.70;1.00
7822;DHT22;3956;50.558;9.678;2022-11-06T02:37:06;6.80;1.00
7822;DHT22;3956;50.558;9.678;2022-11-06T02:39:40;6.80;1.00
7822;DHT22;3956;50.558;9.678;2022-11-06T02:42:12;6.80;1.00
7822;DHT22;3956;50.558;9.678;2022-11-06T02:44:43;6.80;1.00
7822;DHT22;3956;50.558;9.678;2022-11-06T02:47:14;6.90;1.00
7822;DHT22;3956;50.558;9.678;2022-11-06T02:49:45;6.90;1.00
7822;DHT22;3956;50.558;9.678;2022-11-06T02:52:18;6.80;1.00
7822;DHT22;3956;50.558;9.678;2022-11-06T02:54:52;6.80;1.00
7822;DHT22;3956;50.558;9.678;2022-11-06T02:57:24;6.80;1.00
7822;DHT22;3956;50.558;9.678;2022-11-06T02:59:59;6.80;1.00
7822;DHT22;3956;50.558;9.678;2022-11-06T03:02:31;6.80;1.00
7822;DHT22;3956;50.558;9.678;2022-11-06T03:05:05;6.80;1.00
7822;DHT22;3956;50.558;9.678;2022-11-06T03:07:37;6.90;1.00
7822;DHT22;3956;50.558;9.678;2022-11-06T03:10:07;6.80;1.00
7822;DHT22;3956;50.558;9.678;2022-11-06T03:12:48;6.90;1.00
7822;DHT22;3956;50.558;9.678;2022-11-06T03:15:23;6.90;1.00
7822;DHT22;3956;50.558;9.678;2022-11-06T03:18:01;6.90;1.00
7822;DHT22;3956;50.558;9.678;2022-11-06T03:20:36;6.90;1.00
7822;DHT22;3956;50.558;9.678;2022-11-06T03:23:10;6.90;1.00
7822;DHT22;3956;50.558;9.678;2022-11-06T03:25:45;6.90;1.00
7822;DHT22;3956;50.558;9.678;2022-11-06T03:28:22;6.90;1.00
7822;DHT22;3956;50.558;9.678;2022-11-06T03:30:57;7.00;1.00
7822;DHT22;3956;50.558;9.678;2022-11-06T03:33:33;7.00;1.00
7822;DHT22;3956;50.558;9.678;2022-11-06T03:36:06;7.00;1.00
7822;DHT22;3956;50.558;9.678;2022-11-06T03:38:38;6.90;1.00
7822;DHT22;3956;50.558;9.678;2022-11-06T03:41:11;7.00;1.00
7822;DHT22;3956;50.558;9.678;2022-11-06T03:43:44;7.00;1.00
7822;DHT22;3956;50.558;9.678;2022-11-06T03:46:16;7.00;1.00
7822;DHT22;3956;50.558;9.678;2022-11-06T03:48:48;7.00;1.00
7822;DHT22;3956;50.558;9.678;2022-11-06T03:51:20;7.00;1.00
7822;DHT22;3956;50.558;9.678;2022-11-06T03:53:51;6.80;1.00
7822;DHT22;3956;50.558;9.678;2022-11-06T03:56:24;6.90;1.00
7822;DHT22;3956;50.558;9.678;2022-11-06T03:58:55;6.80;1.00
7822;DHT22;3956;50.558;9.678;2022-11-06T04:01:28;6.80;1.00
7822;DHT22;3956;50.558;9.678;2022-11-06T04:04:01;6.80;1.00
7822;DHT22;3956;50.558;9.678;2022-11-06T04:06:36;6.70;1.00
7822;DHT22;3956;50.558;9.678;2022-11-06T04:09:06;6.70;1.00
7822;DHT22;3956;50.558;9.678;2022-11-06T04:11:54;6.70;1.00
7822;DHT22;3956;50.558;9.678;2022-11-06T04:14:45;6.60;1.00
7822;DHT22;3956;50.558;9.678;2022-11-06T04:17:15;6.50;1.00
7822;DHT22;3956;50.558;9.678;2022-11-06T04:19:47;6.50;1.00
7822;DHT22;3956;50.558;9.678;2022-11-06T04:22:29;6.50;1.00
7822;DHT22;3956;50.558;9.678;2022-11-06T04:25:12;6.40;1.00
7822;DHT22;3956;50.558;9.678;2022-11-06T04:28:15;6.40;1.00
7822;DHT22;3956;50.558;9.678;2022-11-06T04:30:54;6.30;1.00
7822;DHT22;3956;50.558;9.678;2022-11-06T04:33:26;6.30;1.00
7822;DHT22;3956;50.558;9.678;2022-11-06T04:36:03;6.30;1.00
7822;DHT22;3956;50.558;9.678;2022-11-06T04:38:40;6.30;1.00
7822;DHT22;3956;50.558;9.678;2022-11-06T04:41:15;6.20;1.00
7822;DHT22;3956;50.558;9.678;2022-11-06T04:43:48;6.20;1.00
7822;DHT22;3956;50.558;9.678;2022-11-06T04:46:22;6.10;1.00
7822;DHT22;3956;50.558;9.678;2022-11-06T04:48:53;6.10;1.00
7822;DHT22;3956;50.558;9.678;2022-11-06T04:51:25;6.10;1.00
7822;DHT22;3956;50.558;9.678;2022-11-06T04:53:55;6.10;1.00
7822;DHT22;3956;50.558;9.678;2022-11-06T04:56:28;6.00;1.00
7822;DHT22;3956;50.558;9.678;2022-11-06T04:59:01;6.00;1.00
7822;DHT22;3956;50.558;9.678;2022-11-06T05:01:32;6.00;1.00
7822;DHT22;3956;50.558;9.678;2022-11-06T05:04:00;5.90;1.00
7822;DHT22;3956;50.558;9.678;2022-11-06T05:06:28;5.90;1.00
7822;DHT22;3956;50.558;9.678;2022-11-06T05:08:57;5.80;1.00
7822;DHT22;3956;50.558;9.678;2022-11-06T05:11:27;5.80;1.00
7822;DHT22;3956;50.558;9.678;2022-11-06T05:13:55;5.70;1.00
7822;DHT22;3956;50.558;9.678;2022-11-06T05:16:23;5.70;1.00
7822;DHT22;3956;50.558;9.678;2022-11-06T05:18:53;5.60;1.00
7822;DHT22;3956;50.558;9.678;2022-11-06T05:21:21;5.60;1.00
7822;DHT22;3956;50.558;9.678;2022-11-06T05:24:07;5.50;1.00
7822;DHT22;3956;50.558;9.678;2022-11-06T05:26:35;5.50;1.00
7822;DHT22;3956;50.558;9.678;2022-11-06T05:29:03;5.40;1.00
7822;DHT22;3956;50.558;9.678;2022-11-06T05:31:32;5.40;1.00
7822;DHT22;3956;50.558;9.678;2022-11-06T05:34:03;5.40;1.00
7822;DHT22;3956;50.558;9.678;2022-11-06T05:36:31;5.30;1.00
7822;DHT22;3956;50.558;9.678;2022-11-06T05:39:00;5.30;1.00
7822;DHT22;3956;50.558;9.678;2022-11-06T05:41:28;5.30;1.00
7822;DHT22;3956;50.558;9.678;2022-11-06T05:43:56;5.30;1.00
7822;DHT22;3956;50.558;9.678;2022-11-06T05:46:25;5.30;1.00
7822;DHT22;3956;50.558;9.678;2022-11-06T05:49:14;5.20;1.00
7822;DHT22;3956;50.558;9.678;2022-11-06T05:51:44;5.30;1.00
7822;DHT22;3956;50.558;9.678;2022-11-06T05:54:13;5.20;1.00
7822;DHT22;3956;50.558;9.678;2022-11-06T05:56:41;5.20;1.00
7822;DHT22;3956;50.558;9.678;2022-11-06T05:59:10;5.20;1.00
7822;DHT22;3956;50.558;9.678;2022-11-06T06:01:38;5.10;1.00
7822;DHT22;3956;50.558;9.678;2022-11-06T06:04:07;5.10;1.00
7822;DHT22;3956;50.558;9.678;2022-11-06T06:06:37;5.20;1.00
7822;DHT22;3956;50.558;9.678;2022-11-06T06:09:06;5.10;1.00
7822;DHT22;3956;50.558;9.678;2022-11-06T06:11:34;5.10;1.00
7822;DHT22;3956;50.558;9.678;2022-11-06T06:14:02;5.10;1.00
7822;DHT22;3956;50.558;9.678;2022-11-06T06:16:30;5.10;1.00
7822;DHT22;3956;50.558;9.678;2022-11-06T06:18:59;5.00;1.00
7822;DHT22;3956;50.558;9.678;2022-11-06T06:21:27;5.00;1.00
7822;DHT22;3956;50.558;9.678;2022-11-06T06:23:56;5.00;1.00
7822;DHT22;3956;50.558;9.678;2022-11-06T06:26:25;5.00;1.00
7822;DHT22;3956;50.558;9.678;2022-11-06T06:28:53;5.00;1.00
7822;DHT22;3956;50.558;9.678;2022-11-06T06:31:21;5.00;1.00
7822;DHT22;3956;50.558;9.678;2022-11-06T06:33:49;5.00;1.00
7822;DHT22;3956;50.558;9.678;2022-11-06T06:36:18;4.90;1.00
7822;DHT22;3956;50.558;9.678;2022-11-06T06:38:46;4.80;1.00
7822;DHT22;3956;50.558;9.678;2022-11-06T06:41:16;4.80;1.00
7822;DHT22;3956;50.558;9.678;2022-11-06T06:43:47;4.80;1.00
7822;DHT22;3956;50.558;9.678;2022-11-06T06:46:15;4.80;1.00
7822;DHT22;3956;50.558;9.678;2022-11-06T06:48:43;4.80;1.00
7822;DHT22;3956;50.558;9.678;2022-11-06T06:51:12;4.80;1.00
7822;DHT22;3956;50.558;9.678;2022-11-06T06:53:45;4.80;1.00
7822;DHT22;3956;50.558;9.678;2022-11-06T06:56:13;4.80;1.00
7822;DHT22;3956;50.558;9.678;2022-11-06T06:58:44;4.80;1.00
7822;DHT22;3956;50.558;9.678;2022-11-06T07:01:12;4.70;1.00
7822;DHT22;3956;50.558;9.678;2022-11-06T07:03:40;4.70;1.00
7822;DHT22;3956;50.558;9.678;2022-11-06T07:06:09;4.70;1.00
7822;DHT22;3956;50.558;9.678;2022-11-06T07:08:37;4.70;1.00
7822;DHT22;3956;50.558;9.678;2022-11-06T07:11:07;4.70;1.00
7822;DHT22;3956;50.558;9.678;2022-11-06T07:13:36;4.70;1.00
7822;DHT22;3956;50.558;9.678;2022-11-06T07:16:08;4.80;1.00
7822;DHT22;3956;50.558;9.678;2022-11-06T07:18:37;4.90;1.00
7822;DHT22;3956;50.558;9.678;2022-11-06T07:21:08;5.00;1.00
7822;DHT22;3956;50.558;9.678;2022-11-06T07:23:41;4.90;1.00
7822;DHT22;3956;50.558;9.678;2022-11-06T07:26:09;5.00;1.00
7822;DHT22;3956;50.558;9.678;2022-11-06T07:28:38;5.20;1.00
7822;DHT22;3956;50.558;9.678;2022-11-06T07:31:08;7.60;1.00
7822;DHT22;3956;50.558;9.678;2022-11-06T07:33:38;9.50;1.00
7822;DHT22;3956;50.558;9.678;2022-11-06T07:36:09;10.30;1.00
7822;DHT22;3956;50.558;9.678;2022-11-06T07:38:39;10.50;1.00
7822;DHT22;3956;50.558;9.678;2022-11-06T07:41:09;11.40;1.00
7822;DHT22;3956;50.558;9.678;2022-11-06T07:43:42;11.90;1.00
7822;DHT22;3956;50.558;9.678;2022-11-06T07:46:12;12.30;1.00
7822;DHT22;3956;50.558;9.678;2022-11-06T07:48:40;9.90;1.00
7822;DHT22;3956;50.558;9.678;2022-11-06T07:51:10;11.50;1.00
7822;DHT22;3956;50.558;9.678;2022-11-06T07:53:38;12.00;1.00
7822;DHT22;3956;50.558;9.678;2022-11-06T07:56:07;13.10;1.00
7822;DHT22;3956;50.558;9.678;2022-11-06T07:58:36;12.40;1.00
7822;DHT22;3956;50.558;9.678;2022-11-06T08:01:04;12.60;1.00
7822;DHT22;3956;50.558;9.678;2022-11-06T08:03:34;11.60;1.00
7822;DHT22;3956;50.558;9.678;2022-11-06T08:06:03;13.60;1.00
7822;DHT22;3956;50.558;9.678;2022-11-06T08:08:32;11.90;1.00
7822;DHT22;3956;50.558;9.678;2022-11-06T08:11:01;13.90;1.00
7822;DHT22;3956;50.558;9.678;2022-11-06T08:13:30;13.60;1.00
7822;DHT22;3956;50.558;9.678;2022-11-06T08:16:03;9.60;1.00
7822;DHT22;3956;50.558;9.678;2022-11-06T08:18:31;8.60;1.00
7822;DHT22;3956;50.558;9.678;2022-11-06T08:21:03;8.00;1.00
7822;DHT22;3956;50.558;9.678;2022-11-06T08:23:33;7.30;1.00
7822;DHT22;3956;50.558;9.678;2022-11-06T08:26:04;7.20;1.00
7822;DHT22;3956;50.558;9.678;2022-11-06T08:28:33;7.20;1.00
7822;DHT22;3956;50.558;9.678;2022-11-06T08:31:04;7.10;1.00
7822;DHT22;3956;50.558;9.678;2022-11-06T08:33:34;7.10;1.00
7822;DHT22;3956;50.558;9.678;2022-11-06T08:36:05;7.10;1.00
7822;DHT22;3956;50.558;9.678;2022-11-06T08:38:34;7.00;1.00
7822;DHT22;3956;50.558;9.678;2022-11-06T08:41:06;7.30;1.00
7822;DHT22;3956;50.558;9.678;2022-11-06T08:43:35;7.40;1.00
7822;DHT22;3956;50.558;9.678;2022-11-06T08:46:05;7.30;1.00
7822;DHT22;3956;50.558;9.678;2022-11-06T08:48:34;7.20;1.00
7822;DHT22;3956;50.558;9.678;2022-11-06T08:51:05;7.30;1.00
7822;DHT22;3956;50.558;9.678;2022-11-06T08:53:33;7.40;1.00
7822;DHT22;3956;50.558;9.678;2022-11-06T08:56:02;7.50;1.00
7822;DHT22;3956;50.558;9.678;2022-11-06T08:58:30;7.30;1.00
7822;DHT22;3956;50.558;9.678;2022-11-06T09:00:59;7.50;1.00
7822;DHT22;3956;50.558;9.678;2022-11-06T09:03:27;7.40;1.00
7822;DHT22;3956;50.558;9.678;2022-11-06T09:05:55;7.30;1.00
7822;DHT22;3956;50.558;9.678;2022-11-06T09:08:25;7.60;1.00
7822;DHT22;3956;50.558;9.678;2022-11-06T09:10:54;7.60;1.00
7822;DHT22;3956;50.558;9.678;2022-11-06T09:13:24;7.70;1.00
7822;DHT22;3956;50.558;9.678;2022-11-06T09:15:53;7.70;1.00
7822;DHT22;3956;50.558;9.678;2022-11-06T09:18:21;7.70;1.00
7822;DHT22;3956;50.558;9.678;2022-11-06T09:20:53;7.80;1.00
7822;DHT22;3956;50.558;9.678;2022-11-06T09:23:22;8.00;1.00
7822;DHT22;3956;50.558;9.678;2022-11-06T09:25:52;7.90;1.00
7822;DHT22;3956;50.558;9.678;2022-11-06T09:28:20;8.20;1.00
7822;DHT22;3956;50.558;9.678;2022-11-06T09:30:48;8.10;1.00
7822;DHT22;3956;50.558;9.678;2022-11-06T09:33:17;8.20;1.00
7822;DHT22;3956;50.558;9.678;2022-11-06T09:35:46;8.40;1.00
7822;DHT22;3956;50.558;9.678;2022-11-06T09:38:14;8.40;1.00
7822;DHT22;3956;50.558;9.678;2022-11-06T09:40:47;8.40;1.00
7822;DHT22;3956;50.558;9.678;2022-11-06T09:43:27;8.50;1.00
7822;DHT22;3956;50.558;9.678;2022-11-06T09:46:22;8.40;1.00
7822;DHT22;3956;50.558;9.678;2022-11-06T09:48:55;8.70;1.00
7822;DHT22;3956;50.558;9.678;2022-11-06T09:51:31;8.70;1.00
7822;DHT22;3956;50.558;9.678;2022-11-06T09:54:06;8.90;1.00
7822;DHT22;3956;50.558;9.678;2022-11-06T09:56:39;9.20;1.00
7822;DHT22;3956;50.558;9.678;2022-11-06T09:59:13;9.10;1.00
7822;DHT22;3956;50.558;9.678;2022-11-06T10:01:44;9.20;1.00
7822;DHT22;3956;50.558;9.678;2022-11-06T10:04:25;9.20;1.00
7822;DHT22;3956;50.558;9.678;2022-11-06T10:06:56;9.20;1.00
7822;DHT22;3956;50.558;9.678;2022-11-06T10:09:24;9.20;1.00
7822;DHT22;3956;50.558;9.678;2022-11-06T10:12:02;9.30;1.00
7822;DHT22;3956;50.558;9.678;2022-11-06T10:14:46;9.20;1.00
7822;DHT22;3956;50.558;9.678;2022-11-06T10:17:30;9.20;1.00
7822;DHT22;3956;50.558;9.678;2022-11-06T10:20:10;9.50;1.00
7822;DHT22;3956;50.558;9.678;2022-11-06T10:22:41;9.60;1.00
7822;DHT22;3956;50.558;9.678;2022-11-06T10:25:18;9.60;1.00
7822;DHT22;3956;50.558;9.678;2022-11-06T10:28:00;9.90;1.00
7822;DHT22;3956;50.558;9.678;2022-11-06T10:30:38;9.80;1.00
7822;DHT22;3956;50.558;9.678;2022-11-06T10:33:22;9.70;1.00
7822;DHT22;3956;50.558;9.678;2022-11-06T10:36:00;9.90;1.00
7822;DHT22;3956;50.558;9.678;2022-11-06T10:38:33;9.70;1.00
7822;DHT22;3956;50.558;9.678;2022-11-06T10:41:03;9.90;1.00
7822;DHT22;3956;50.558;9.678;2022-11-06T10:43:34;9.70;1.00
7822;DHT22;3956;50.558;9.678;2022-11-06T10:46:10;9.70;1.00
7822;DHT22;3956;50.558;9.678;2022-11-06T10:48:47;9.90;1.00
7822;DHT22;3956;50.558;9.678;2022-11-06T10:51:32;9.50;1.00
7822;DHT22;3956;50.558;9.678;2022-11-06T10:54:17;9.70;1.00
7822;DHT22;3956;50.558;9.678;2022-11-06T10:56:57;10.00;1.00
7822;DHT22;3956;50.558;9.678;2022-11-06T10:59:30;10.10;1.00
7822;DHT22;3956;50.558;9.678;2022-11-06T11:02:01;10.20;1.00
7822;DHT22;3956;50.558;9.678;2022-11-06T11:04:31;10.30;1.00
7822;DHT22;3956;50.558;9.678;2022-11-06T11:07:09;10.00;1.00
7822;DHT22;3956;50.558;9.678;2022-11-06T11:09:47;10.10;1.00
7822;DHT22;3956;50.558;9.678;2022-11-06T11:12:22;10.00;1.00
7822;DHT22;3956;50.558;9.678;2022-11-06T11:15:05;10.30;1.00
7822;DHT22;3956;50.558;9.678;2022-11-06T11:17:40;10.40;1.00
7822;DHT22;3956;50.558;9.678;2022-11-06T11:20:28;10.70;1.00
7822;DHT22;3956;50.558;9.678;2022-11-06T11:23:14;10.40;1.00
7822;DHT22;3956;50.558;9.678;2022-11-06T11:25:44;10.30;1.00
7822;DHT22;3956;50.558;9.678;2022-11-06T11:28:25;10.30;1.00
7822;DHT22;3956;50.558;9.678;2022-11-06T11:30:57;10.40;1.00
7822;DHT22;3956;50.558;9.678;2022-11-06T11:33:28;10.40;1.00
7822;DHT22;3956;50.558;9.678;2022-11-06T11:35:56;10.40;1.00
7822;DHT22;3956;50.558;9.678;2022-11-06T11:38:24;10.60;1.00
7822;DHT22;3956;50.558;9.678;2022-11-06T11:41:05;10.30;1.00
7822;DHT22;3956;50.558;9.678;2022-11-06T11:43:34;10.50;1.00
7822;DHT22;3956;50.558;9.678;2022-11-06T11:46:18;10.70;1.00
7822;DHT22;3956;50.558;9.678;2022-11-06T11:48:50;10.70;1.00
7822;DHT22;3956;50.558;9.678;2022-11-06T11:51:30;10.80;1.00
7822;DHT22;3956;50.558;9.678;2022-11-06T11:54:16;10.70;1.00
7822;DHT22;3956;50.558;9.678;2022-11-06T11:56:49;10.70;1.00
7822;DHT22;3956;50.558;9.678;2022-11-06T11:59:36;11.20;1.00
7822;DHT22;3956;50.558;9.678;2022-11-06T12:02:15;11.60;1.00
7822;DHT22;3956;50.558;9.678;2022-11-06T12:04:56;11.00;1.00
7822;DHT22;3956;50.558;9.678;2022-11-06T12:07:27;11.00;1.00
7822;DHT22;3956;50.558;9.678;2022-11-06T12:09:56;10.80;1.00
7822;DHT22;3956;50.558;9.678;2022-11-06T12:12:28;10.70;1.00
7822;DHT22;3956;50.558;9.678;2022-11-06T12:15:13;10.50;1.00
7822;DHT22;3956;50.558;9.678;2022-11-06T12:17:46;10.50;1.00
7822;DHT22;3956;50.558;9.678;2022-11-06T12:20:21;10.60;1.00
7822;DHT22;3956;50.558;9.678;2022-11-06T12:22:51;10.40;1.00
7822;DHT22;3956;50.558;9.678;2022-11-06T12:25:24;10.40;1.00
7822;DHT22;3956;50.558;9.678;2022-11-06T12:27:58;10.60;1.00
7822;DHT22;3956;50.558;9.678;2022-11-06T12:30:29;10.70;1.00
7822;DHT22;3956;50.558;9.678;2022-11-06T12:33:04;10.70;1.00
7822;DHT22;3956;50.558;9.678;2022-11-06T12:35:38;10.80;1.00
7822;DHT22;3956;50.558;9.678;2022-11-06T12:38:17;10.90;1.00
7822;DHT22;3956;50.558;9.678;2022-11-06T12:40:49;10.70;1.00
7822;DHT22;3956;50.558;9.678;2022-11-06T12:43:26;10.80;1.00
7822;DHT22;3956;50.558;9.678;2022-11-06T12:46:05;10.70;1.00
7822;DHT22;3956;50.558;9.678;2022-11-06T12:48:55;10.80;1.00
7822;DHT22;3956;50.558;9.678;2022-11-06T12:51:32;10.60;1.00
7822;DHT22;3956;50.558;9.678;2022-11-06T12:54:20;10.50;1.00
7822;DHT22;3956;50.558;9.678;2022-11-06T12:56:57;10.40;1.00
7822;DHT22;3956;50.558;9.678;2022-11-06T12:59:37;10.40;1.00
7822;DHT22;3956;50.558;9.678;2022-11-06T13:02:21;10.40;1.00
7822;DHT22;3956;50.558;9.678;2022-11-06T13:04:55;10.60;1.00
7822;DHT22;3956;50.558;9.678;2022-11-06T13:10:39;10.60;1.00
7822;DHT22;3956;50.558;9.678;2022-11-06T13:16:16;10.30;1.00
7822;DHT22;3956;50.558;9.678;2022-11-06T13:18:52;10.30;1.00
7822;DHT22;3956;50.558;9.678;2022-11-06T13:21:29;10.40;1.00
7822;DHT22;3956;50.558;9.678;2022-11-06T13:24:02;10.40;1.00
7822;DHT22;3956;50.558;9.678;2022-11-06T13:26:40;10.30;1.00
7822;DHT22;3956;50.558;9.678;2022-11-06T13:29:12;10.40;1.00
7822;DHT22;3956;50.558;9.678;2022-11-06T13:31:43;10.50;1.00
7822;DHT22;3956;50.558;9.678;2022-11-06T13:34:17;10.40;1.00
7822;DHT22;3956;50.558;9.678;2022-11-06T13:36:47;10.40;1.00
7822;DHT22;3956;50.558;9.678;2022-11-06T13:39:19;10.40;1.00
7822;DHT22;3956;50.558;9.678;2022-11-06T13:41:51;10.40;1.00
7822;DHT22;3956;50.558;9.678;2022-11-06T13:44:22;10.20;1.00
7822;DHT22;3956;50.558;9.678;2022-11-06T13:46:58;10.30;1.00
7822;DHT22;3956;50.558;9.678;2022-11-06T13:49:37;10.10;1.00
7822;DHT22;3956;50.558;9.678;2022-11-06T13:52:12;10.20;1.00
7822;DHT22;3956;50.558;9.678;2022-11-06T13:54:59;10.20;1.00
7822;DHT22;3956;50.558;9.678;2022-11-06T13:57:46;10.20;1.00
7822;DHT22;3956;50.558;9.678;2022-11-06T14:00:19;10.20;1.00
7822;DHT22;3956;50.558;9.678;2022-11-06T14:03:06;10.10;1.00
7822;DHT22;3956;50.558;9.678;2022-11-06T14:05:49;10.10;1.00
7822;DHT22;3956;50.558;9.678;2022-11-06T14:08:21;10.10;1.00
7822;DHT22;3956;50.558;9.678;2022-11-06T14:10:55;10.00;1.00
7822;DHT22;3956;50.558;9.678;2022-11-06T14:13:31;10.00;1.00
7822;DHT22;3956;50.558;9.678;2022-11-06T14:16:05;9.90;1.00
7822;DHT22;3956;50.558;9.678;2022-11-06T14:18:35;9.80;1.00
7822;DHT22;3956;50.558;9.678;2022-11-06T14:24:38;9.80;1.00
7822;DHT22;3956;50.558;9.678;2022-11-06T14:27:11;9.70;1.00
7822;DHT22;3956;50.558;9.678;2022-11-06T14:32:43;9.70;1.00
7822;DHT22;3956;50.558;9.678;2022-11-06T14:38:31;9.70;1.00
7822;DHT22;3956;50.558;9.678;2022-11-06T14:41:00;9.60;1.00
7822;DHT22;3956;50.558;9.678;2022-11-06T14:43:31;9.60;1.00
7822;DHT22;3956;50.558;9.678;2022-11-06T14:46:04;9.60;1.00
7822;DHT22;3956;50.558;9.678;2022-11-06T14:48:36;9.70;1.00
7822;DHT22;3956;50.558;9.678;2022-11-06T14:51:07;9.70;1.00
7822;DHT22;3956;50.558;9.678;2022-11-06T14:53:44;9.70;1.00
7822;DHT22;3956;50.558;9.678;2022-11-06T14:56:20;9.70;1.00
7822;DHT22;3956;50.558;9.678;2022-11-06T14:58:50;9.70;1.00
7822;DHT22;3956;50.558;9.678;2022-11-06T15:01:27;9.70;1.00
7822;DHT22;3956;50.558;9.678;2022-11-06T15:03:58;9.70;1.00
7822;DHT22;3956;50.558;9.678;2022-11-06T15:06:40;9.60;1.00
7822;DHT22;3956;50.558;9.678;2022-11-06T15:09:14;9.60;1.00
7822;DHT22;3956;50.558;9.678;2022-11-06T15:11:59;9.50;1.00
7822;DHT22;3956;50.558;9.678;2022-11-06T15:14:56;9.50;1.00
7822;DHT22;3956;50.558;9.678;2022-11-06T15:17:31;9.40;1.00
7822;DHT22;3956;50.558;9.678;2022-11-06T15:20:06;9.40;1.00
7822;DHT22;3956;50.558;9.678;2022-11-06T15:22:38;9.40;1.00
7822;DHT22;3956;50.558;9.678;2022-11-06T15:25:19;9.30;1.00
7822;DHT22;3956;50.558;9.678;2022-11-06T15:27:58;9.30;1.00
7822;DHT22;3956;50.558;9.678;2022-11-06T15:30:37;9.30;1.00
7822;DHT22;3956;50.558;9.678;2022-11-06T15:33:12;9.20;1.00
7822;DHT22;3956;50.558;9.678;2022-11-06T15:35:43;9.10;1.00
7822;DHT22;3956;50.558;9.678;2022-11-06T15:38:16;9.00;1.00
7822;DHT22;3956;50.558;9.678;2022-11-06T15:40:45;8.90;1.00
7822;DHT22;3956;50.558;9.678;2022-11-06T15:43:26;8.80;1.00
7822;DHT22;3956;50.558;9.678;2022-11-06T15:46:03;8.80;1.00
7822;DHT22;3956;50.558;9.678;2022-11-06T15:48:34;8.70;1.00
7822;DHT22;3956;50.558;9.678;2022-11-06T15:51:17;8.70;1.00
7822;DHT22;3956;50.558;9.678;2022-11-06T15:53:46;8.60;1.00
7822;DHT22;3956;50.558;9.678;2022-11-06T15:56:15;8.50;1.00
7822;DHT22;3956;50.558;9.678;2022-11-06T15:58:45;8.50;1.00
7822;DHT22;3956;50.558;9.678;2022-11-06T16:01:13;8.40;1.00
7822;DHT22;3956;50.558;9.678;2022-11-06T16:03:54;8.40;1.00
7822;DHT22;3956;50.558;9.678;2022-11-06T16:06:23;8.30;1.00
7822;DHT22;3956;50.558;9.678;2022-11-06T16:08:51;8.20;1.00
7822;DHT22;3956;50.558;9.678;2022-11-06T16:11:20;8.20;1.00
7822;DHT22;3956;50.558;9.678;2022-11-06T16:13:49;8.10;1.00
7822;DHT22;3956;50.558;9.678;2022-11-06T16:16:35;8.10;1.00
7822;DHT22;3956;50.558;9.678;2022-11-06T16:19:16;8.00;1.00
7822;DHT22;3956;50.558;9.678;2022-11-06T16:21:50;8.00;1.00
7822;DHT22;3956;50.558;9.678;2022-11-06T16:24:22;8.00;1.00
7822;DHT22;3956;50.558;9.678;2022-11-06T16:26:52;7.90;1.00
7822;DHT22;3956;50.558;9.678;2022-11-06T16:29:22;7.80;1.00
7822;DHT22;3956;50.558;9.678;2022-11-06T16:31:59;7.80;1.00
7822;DHT22;3956;50.558;9.678;2022-11-06T16:34:38;7.70;1.00
7822;DHT22;3956;50.558;9.678;2022-11-06T16:37:33;7.70;1.00
7822;DHT22;3956;50.558;9.678;2022-11-06T16:40:02;7.60;1.00
7822;DHT22;3956;50.558;9.678;2022-11-06T16:42:33;7.60;1.00
7822;DHT22;3956;50.558;9.678;2022-11-06T16:45:15;7.60;1.00
7822;DHT22;3956;50.558;9.678;2022-11-06T16:50:48;7.60;1.00
7822;DHT22;3956;50.558;9.678;2022-11-06T16:53:20;7.70;1.00
7822;DHT22;3956;50.558;9.678;2022-11-06T16:55:53;7.60;1.00
7822;DHT22;3956;50.558;9.678;2022-11-06T16:58:22;7.60;1.00
7822;DHT22;3956;50.558;9.678;2022-11-06T17:00:56;7.60;1.00
7822;DHT22;3956;50.558;9.678;2022-11-06T17:03:31;7.60;1.00
7822;DHT22;3956;50.558;9.678;2022-11-06T17:06:03;7.60;1.00
7822;DHT22;3956;50.558;9.678;2022-11-06T17:08:34;7.50;1.00
7822;DHT22;3956;50.558;9.678;2022-11-06T17:11:16;7.60;1.00
7822;DHT22;3956;50.558;9.678;2022-11-06T17:13:48;7.60;1.00
7822;DHT22;3956;50.558;9.678;2022-11-06T17:16:19;7.50;1.00
7822;DHT22;3956;50.558;9.678;2022-11-06T17:18:48;7.50;1.00
7822;DHT22;3956;50.558;9.678;2022-11-06T17:21:20;7.50;1.00
7822;DHT22;3956;50.558;9.678;2022-11-06T17:23:50;7.40;1.00
7822;DHT22;3956;50.558;9.678;2022-11-06T17:26:21;7.40;1.00
7822;DHT22;3956;50.558;9.678;2022-11-06T17:28:51;7.40;1.00